createdAt,value
2018-07-15T00:00:01.443Z,1017.16
2018-07-15T00:05:01.339Z,1017.16
2018-07-15T00:10:01.418Z,1017.17
2018-07-15T00:15:01.341Z,1017.17
2018-07-15T00:25:01.348Z,1017.17
2018-07-15T00:30:01.484Z,1017.12
2018-07-15T00:35:01.413Z,1017.12
2018-07-15T00:45:01.429Z,1017.13
2018-07-15T00:50:01.429Z,1017.11
2018-07-15T00:55:01.361Z,1017.11
2018-07-15T01:00:01.365Z,1017.11
2018-07-15T01:10:01.438Z,1017.16
2018-07-15T01:15:01.361Z,1017.16
2018-07-15T01:20:01.439Z,1017.19
2018-07-15T01:30:01.382Z,1017.1
2018-07-15T01:45:01.391Z,1017.12
2018-07-15T01:55:01.390Z,1017.19
2018-07-15T02:00:01.360Z,1017.12
2018-07-15T02:10:01.393Z,1017.2
2018-07-15T02:15:01.403Z,1017.2
2018-07-15T02:20:01.362Z,1017.13
2018-07-15T02:30:01.366Z,1017.17
2018-07-15T02:35:01.415Z,1017.17
2018-07-15T02:40:01.395Z,1017.16
2018-07-15T02:45:01.374Z,1017.16
2018-07-15T03:00:01.398Z,1017.12
2018-07-15T03:15:01.420Z,1017.09
2018-07-15T03:20:01.401Z,1016.96
2018-07-15T03:30:01.394Z,1016.89
2018-07-15T03:45:01.352Z,1016.92
2018-07-15T03:55:01.391Z,1016.9
2018-07-15T04:00:01.403Z,1016.88
2018-07-15T04:10:01.402Z,1016.92
2018-07-15T04:15:01.359Z,1016.92
2018-07-15T04:20:01.407Z,1016.94
2018-07-15T04:25:01.411Z,1016.94
2018-07-15T04:30:01.410Z,1016.91
2018-07-15T04:35:01.424Z,1016.91
2018-07-15T04:40:01.343Z,1016.86
2018-07-15T04:45:01.398Z,1016.86
2018-07-15T04:50:01.419Z,1016.87
2018-07-15T04:55:01.399Z,1016.87
2018-07-15T05:00:01.405Z,1016.92
2018-07-15T05:05:01.403Z,1016.92
2018-07-15T05:10:01.406Z,1016.9
2018-07-15T05:15:01.435Z,1016.9
2018-07-15T05:20:01.433Z,1016.89
2018-07-15T05:25:01.693Z,1016.89
2018-07-15T05:30:01.386Z,1016.86
2018-07-15T05:35:01.828Z,1016.86
2018-07-15T05:40:01.422Z,1016.91
2018-07-15T05:45:01.405Z,1016.91
2018-07-15T05:50:01.457Z,1016.92
2018-07-15T05:55:01.406Z,1016.92
2018-07-15T06:00:01.634Z,1016.97
2018-07-15T06:05:01.409Z,1016.97
2018-07-15T06:10:01.523Z,1016.98
2018-07-15T06:15:01.595Z,1016.98
2018-07-15T06:20:01.445Z,1017.04
2018-07-15T06:25:01.420Z,1017.04
2018-07-15T06:30:01.671Z,1017.01
2018-07-15T06:35:01.451Z,1017.01
2018-07-15T06:40:01.591Z,1016.9
2018-07-15T06:45:01.586Z,1016.9
2018-07-15T06:50:01.525Z,1016.96
2018-07-15T06:55:01.414Z,1016.96
2018-07-15T07:00:01.714Z,1016.85
2018-07-15T07:05:01.519Z,1016.85
2018-07-15T07:11:01.465Z,1016.91
2018-07-15T07:16:01.409Z,1016.91
2018-07-15T07:21:01.678Z,1016.85
2018-07-15T07:26:01.407Z,1016.85
2018-07-15T07:31:01.425Z,1016.83
2018-07-15T07:36:01.455Z,1016.83
2018-07-15T07:41:01.418Z,1016.83
2018-07-15T07:46:01.472Z,1016.83
2018-07-15T07:51:01.472Z,1016.73
2018-07-15T07:56:01.428Z,1016.73
2018-07-15T08:01:01.429Z,1016.77
2018-07-15T08:06:01.418Z,1016.77
2018-07-15T08:11:01.743Z,1016.78
2018-07-15T08:16:01.658Z,1016.78
2018-07-15T08:21:01.414Z,1016.73
2018-07-15T08:26:01.406Z,1016.73
2018-07-15T08:31:01.542Z,1016.69
2018-07-15T08:36:01.445Z,1016.69
2018-07-15T08:41:01.509Z,1016.76
2018-07-15T08:46:01.634Z,1016.76
2018-07-15T08:51:01.507Z,1016.61
2018-07-15T08:56:01.418Z,1016.61
2018-07-15T09:02:01.407Z,1016.56
2018-07-15T09:07:01.399Z,1016.56
2018-07-15T09:12:01.474Z,1016.47
2018-07-15T09:17:01.504Z,1016.47
2018-07-15T09:22:01.480Z,1016.43
2018-07-15T09:27:01.408Z,1016.43
2018-07-15T09:32:01.457Z,1016.44
2018-07-15T09:37:01.408Z,1016.44
2018-07-15T09:42:01.463Z,1016.37
2018-07-15T09:47:01.464Z,1016.37
2018-07-15T09:52:01.474Z,1016.31
2018-07-15T10:02:01.271Z,1016.27
2018-07-15T10:12:01.452Z,1016.17
2018-07-15T10:17:01.503Z,1016.17
2018-07-15T10:22:01.456Z,1016.26
2018-07-15T10:27:01.409Z,1016.26
2018-07-15T10:37:01.517Z,1016.25
2018-07-15T10:42:01.465Z,1016.25
2018-07-15T10:52:01.470Z,1016.14
2018-07-15T10:57:01.436Z,1016.14
2018-07-15T11:02:01.448Z,1016.11
2018-07-15T11:07:01.521Z,1016.11
2018-07-15T11:12:01.450Z,1015.95
2018-07-15T11:17:01.404Z,1015.95
2018-07-15T11:22:01.454Z,1015.89
2018-07-15T11:27:01.404Z,1015.89
2018-07-15T11:32:01.433Z,1015.83
2018-07-15T11:42:01.430Z,1015.76
2018-07-15T11:47:01.483Z,1015.76
2018-07-15T11:52:01.467Z,1015.74
2018-07-15T11:57:01.413Z,1015.74
2018-07-15T12:02:01.672Z,1015.7
2018-07-15T12:13:01.455Z,1015.62
2018-07-15T12:18:01.468Z,1015.62
2018-07-15T12:23:01.458Z,1015.56
2018-07-15T12:28:01.412Z,1015.56
2018-07-15T12:33:01.419Z,1015.53
2018-07-15T12:38:01.422Z,1015.53
2018-07-15T12:43:01.531Z,1015.52
2018-07-15T12:53:01.530Z,1015.45
2018-07-15T12:58:01.403Z,1015.45
2018-07-15T13:03:01.408Z,1015.34
2018-07-15T13:08:01.398Z,1015.34
2018-07-15T13:13:01.462Z,1015.3
2018-07-15T13:18:01.394Z,1015.3
2018-07-15T13:23:01.452Z,1015.29
2018-07-15T13:28:01.401Z,1015.29
2018-07-15T13:33:01.421Z,1015.16
2018-07-15T13:38:01.429Z,1015.16
2018-07-15T13:43:01.469Z,1014.98
2018-07-15T13:48:01.414Z,1014.98
2018-07-15T13:53:01.462Z,1014.97
2018-07-15T13:58:01.428Z,1014.97
2018-07-15T14:03:01.402Z,1014.9
2018-07-15T14:08:01.420Z,1014.9
2018-07-15T14:13:01.481Z,1014.89
2018-07-15T14:18:01.423Z,1014.89
2018-07-15T14:23:01.478Z,1014.78
2018-07-15T14:28:01.725Z,1014.78
2018-07-15T14:33:01.452Z,1014.66
2018-07-15T14:38:01.593Z,1014.66
2018-07-15T14:43:01.471Z,1014.58
2018-07-15T14:48:01.402Z,1014.58
2018-07-15T14:53:01.513Z,1014.54
2018-07-15T15:03:01.270Z,1014.52
2018-07-15T15:18:01.257Z,1014.55
2018-07-15T15:33:01.269Z,1014.41
2018-07-15T15:43:01.498Z,1014.36
2018-07-15T15:58:01.504Z,1014.35
2018-07-15T16:14:01.441Z,1014.24
2018-07-15T16:19:01.570Z,1014.24
2018-07-15T16:24:01.439Z,1014.24
2018-07-15T16:29:01.473Z,1014.15
2018-07-15T16:34:01.501Z,1014.15
2018-07-15T16:39:01.663Z,1014.19
2018-07-15T16:44:01.606Z,1014.19
2018-07-15T16:49:01.628Z,1014.08
2018-07-15T16:54:01.566Z,1014.08
2018-07-15T16:59:01.538Z,1014.04
2018-07-15T17:04:01.519Z,1014.04
2018-07-15T17:09:01.526Z,1014.01
2018-07-15T17:14:01.529Z,1014.01
2018-07-15T17:19:01.535Z,1014.06
2018-07-15T17:29:01.557Z,1013.98
2018-07-15T17:34:01.557Z,1013.98
2018-07-15T17:39:01.566Z,1013.95
2018-07-15T17:49:01.540Z,1013.95
2018-07-15T17:59:01.535Z,1013.98
2018-07-15T18:09:01.579Z,1014.07
2018-07-15T18:15:01.521Z,1014.07
2018-07-15T18:20:01.535Z,1014.09
2018-07-15T18:25:01.519Z,1014.09
2018-07-15T18:30:01.624Z,1014.13
2018-07-15T18:35:01.548Z,1014.13
2018-07-15T18:40:01.528Z,1014.14
2018-07-15T18:45:01.817Z,1014.14
2018-07-15T18:50:01.543Z,1014.27
2018-07-15T18:55:01.535Z,1014.27
2018-07-15T19:00:02.565Z,1014.42
2018-07-15T19:05:01.519Z,1014.42
2018-07-15T19:10:01.535Z,1014.47
2018-07-15T19:15:01.592Z,1014.47
2018-07-15T19:20:01.540Z,1014.49
2018-07-15T19:25:01.540Z,1014.49
2018-07-15T19:30:01.544Z,1014.6
2018-07-15T19:35:01.631Z,1014.6
2018-07-15T19:40:01.549Z,1014.7
2018-07-15T19:45:01.544Z,1014.7
2018-07-15T19:50:01.540Z,1014.78
2018-07-15T19:55:01.531Z,1014.78
2018-07-15T20:00:01.541Z,1014.85
2018-07-15T20:05:01.594Z,1014.85
2018-07-15T20:10:01.525Z,1014.95
2018-07-15T20:15:01.532Z,1014.95
2018-07-15T20:20:01.524Z,1014.98
2018-07-15T20:25:01.537Z,1014.98
2018-07-15T20:30:01.536Z,1015.04
2018-07-15T20:40:01.560Z,1015.04
2018-07-15T20:45:01.733Z,1015.04
2018-07-15T20:50:01.543Z,1015.19
2018-07-15T20:56:01.537Z,1015.19
2018-07-15T21:01:01.543Z,1015.15
2018-07-15T21:06:01.528Z,1015.15
2018-07-15T21:11:01.529Z,1015.11
2018-07-15T21:16:01.532Z,1015.11
2018-07-15T21:21:01.402Z,1015.17
2018-07-15T21:26:01.526Z,1015.17
2018-07-15T21:31:01.673Z,1015.19
2018-07-15T21:41:01.518Z,1015.28
2018-07-15T21:51:01.480Z,1015.33
2018-07-15T21:56:01.381Z,1015.33
2018-07-15T22:01:01.481Z,1015.24
2018-07-15T22:06:01.384Z,1015.24
2018-07-15T22:11:01.465Z,1015.31
2018-07-15T22:16:01.390Z,1015.31
2018-07-15T22:21:01.416Z,1015.4
2018-07-15T22:26:01.395Z,1015.4
2018-07-15T22:31:01.533Z,1015.32
2018-07-15T22:41:01.509Z,1015.34
2018-07-15T22:46:01.446Z,1015.34
2018-07-15T23:01:01.493Z,1015.32
2018-07-15T23:16:01.454Z,1015.43
2018-07-15T23:31:01.608Z,1015.32
2018-07-15T23:36:01.402Z,1015.32
2018-07-15T23:46:01.426Z,1015.35
2018-07-15T23:51:01.474Z,1015.32
